createdAt,value
2018-06-21T00:02:26.712Z,8.33
2018-06-21T00:04:55.139Z,6.90
2018-06-21T00:07:23.131Z,7.60
2018-06-21T00:09:51.105Z,7.17
2018-06-21T00:12:19.069Z,7.10
2018-06-21T00:14:47.125Z,8.17
2018-06-21T00:17:15.084Z,6.63
2018-06-21T00:19:43.062Z,7.20
2018-06-21T00:22:11.213Z,7.30
2018-06-21T00:24:39.399Z,7.80
2018-06-21T00:27:07.773Z,6.43
2018-06-21T00:29:36.178Z,7.20
2018-06-21T00:32:06.027Z,6.70
2018-06-21T00:34:34.427Z,7.60
2018-06-21T00:37:02.436Z,6.37
2018-06-21T00:39:30.344Z,6.50
2018-06-21T00:41:58.420Z,6.50
2018-06-21T00:44:26.437Z,6.60
2018-06-21T00:46:54.983Z,6.40
2018-06-21T00:49:22.945Z,5.57
2018-06-21T00:51:50.925Z,6.17
2018-06-21T00:54:18.873Z,6.90
2018-06-21T00:56:46.855Z,6.13
2018-06-21T00:59:14.816Z,6.93
2018-06-21T01:01:43.063Z,5.40
2018-06-21T01:04:11.825Z,6.20
2018-06-21T01:06:40.037Z,6.80
2018-06-21T01:09:08.413Z,5.90
2018-06-21T01:11:37.312Z,6.30
2018-06-21T01:14:05.673Z,5.97
2018-06-21T01:16:34.691Z,6.50
2018-06-21T01:19:02.956Z,6.27
2018-06-21T01:21:30.875Z,6.30
2018-06-21T01:23:58.814Z,6.50
2018-06-21T01:26:26.972Z,7.23
2018-06-21T01:28:55.144Z,6.50
2018-06-21T01:31:23.153Z,6.57
2018-06-21T01:33:51.114Z,6.10
2018-06-21T01:36:19.090Z,6.40
2018-06-21T01:38:47.061Z,6.77
2018-06-21T01:41:14.994Z,6.20
2018-06-21T01:43:42.982Z,6.70
2018-06-21T01:46:11.116Z,6.70
2018-06-21T01:48:39.229Z,7.77
2018-06-21T01:51:07.350Z,6.10
2018-06-21T01:53:35.529Z,6.83
2018-06-21T01:56:04.194Z,6.80
2018-06-21T01:58:32.168Z,5.97
2018-06-21T02:01:00.073Z,6.70
2018-06-21T02:03:28.101Z,6.03
2018-06-21T02:05:56.285Z,5.80
2018-06-21T02:08:24.409Z,5.70
2018-06-21T02:10:52.372Z,6.30
2018-06-21T02:13:20.570Z,6.40
2018-06-21T02:15:48.535Z,5.50
2018-06-21T02:18:16.498Z,5.33
2018-06-21T02:20:44.485Z,6.33
2018-06-21T02:23:12.846Z,6.27
2018-06-21T02:25:41.058Z,5.73
2018-06-21T02:28:09.156Z,6.33
2018-06-21T02:30:37.304Z,6.10
2018-06-21T02:33:05.705Z,6.80
2018-06-21T02:38:08.274Z,6.47
2018-06-21T02:40:36.744Z,7.10
2018-06-21T02:43:05.137Z,7.10
2018-06-21T02:45:33.366Z,5.90
2018-06-21T02:48:01.353Z,5.83
2018-06-21T02:50:29.521Z,6.80
2018-06-21T02:52:57.603Z,5.90
2018-06-21T02:55:25.753Z,7.00
2018-06-21T02:57:53.996Z,7.40
2018-06-21T03:00:21.983Z,6.13
2018-06-21T03:02:49.941Z,5.63
2018-06-21T03:05:18.032Z,6.47
2018-06-21T03:07:46.223Z,6.73
2018-06-21T03:10:14.214Z,5.30
2018-06-21T03:12:42.228Z,6.67
2018-06-21T03:15:10.537Z,6.20
2018-06-21T03:17:38.805Z,6.53
2018-06-21T03:20:07.377Z,6.20
2018-06-21T03:22:36.118Z,7.13
2018-06-21T03:25:04.626Z,6.50
2018-06-21T03:27:33.167Z,5.47
2018-06-21T03:30:01.717Z,7.23
2018-06-21T03:32:30.080Z,5.10
2018-06-21T03:34:58.176Z,6.90
2018-06-21T03:37:26.375Z,6.60
2018-06-21T03:39:54.422Z,5.97
2018-06-21T03:42:22.430Z,6.80
2018-06-21T03:44:51.193Z,6.63
2018-06-21T03:47:19.181Z,6.97
2018-06-21T03:49:47.109Z,6.30
2018-06-21T03:52:15.205Z,5.67
2018-06-21T03:54:43.148Z,6.23
2018-06-21T03:57:11.189Z,6.90
2018-06-21T03:59:39.365Z,6.20
2018-06-21T04:02:07.602Z,6.57
2018-06-21T04:04:36.203Z,6.13
2018-06-21T04:07:04.587Z,6.93
2018-06-21T04:09:33.039Z,6.13
2018-06-21T04:12:01.013Z,6.17
2018-06-21T04:14:28.949Z,6.37
2018-06-21T04:16:57.359Z,5.33
2018-06-21T04:19:25.609Z,5.77
2018-06-21T04:21:53.553Z,6.10
2018-06-21T04:24:21.528Z,6.30
2018-06-21T04:26:49.480Z,5.00
2018-06-21T04:29:17.450Z,5.27
2018-06-21T04:31:45.658Z,5.33
2018-06-21T04:34:13.976Z,6.60
2018-06-21T04:36:42.099Z,5.53
2018-06-21T04:39:10.506Z,5.43
2018-06-21T04:41:39.132Z,4.80
2018-06-21T04:44:07.719Z,6.50
2018-06-21T04:46:36.549Z,5.00
2018-06-21T04:49:05.090Z,5.53
2018-06-21T04:51:33.450Z,4.60
2018-06-21T04:54:01.723Z,5.87
2018-06-21T04:56:29.717Z,4.83
2018-06-21T04:58:58.097Z,5.60
2018-06-21T05:01:26.347Z,4.53
2018-06-21T05:03:55.045Z,6.13
2018-06-21T05:06:23.244Z,4.43
2018-06-21T05:08:51.148Z,5.30
2018-06-21T05:11:19.095Z,5.73
2018-06-21T05:13:47.020Z,5.23
2018-06-21T05:16:15.463Z,5.17
2018-06-21T05:18:44.325Z,5.43
2018-06-21T05:21:12.766Z,4.67
2018-06-21T05:23:41.173Z,4.70
2018-06-21T05:26:10.242Z,5.40
2018-06-21T05:28:38.964Z,5.40
2018-06-21T05:31:08.210Z,4.40
2018-06-21T05:33:36.913Z,6.77
2018-06-21T05:36:05.902Z,4.57
2018-06-21T05:38:34.964Z,5.03
2018-06-21T05:41:03.460Z,4.93
2018-06-21T05:43:31.594Z,5.33
2018-06-21T05:45:59.718Z,5.20
2018-06-21T05:48:28.345Z,5.17
2018-06-21T05:50:56.869Z,3.73
2018-06-21T05:53:24.983Z,3.83
2018-06-21T05:55:53.030Z,4.87
2018-06-21T05:58:21.178Z,6.17
2018-06-21T06:00:49.169Z,4.80
2018-06-21T06:03:17.165Z,6.03
2018-06-21T06:05:45.425Z,5.00
2018-06-21T06:08:13.732Z,5.70
2018-06-21T06:10:42.211Z,6.20
2018-06-21T06:13:10.948Z,5.33
2018-06-21T06:15:40.363Z,4.50
2018-06-21T06:18:10.096Z,5.33
2018-06-21T06:20:42.591Z,4.97
2018-06-21T06:23:11.743Z,5.07
2018-06-21T06:25:43.203Z,4.10
2018-06-21T06:28:17.853Z,4.63
2018-06-21T06:30:46.377Z,4.43
2018-06-21T06:33:14.677Z,4.70
2018-06-21T06:35:46.683Z,4.57
2018-06-21T06:38:16.860Z,4.80
2018-06-21T06:40:45.222Z,6.23
2018-06-21T06:43:19.761Z,4.80
2018-06-21T06:45:49.782Z,5.20
2018-06-21T06:50:57.565Z,4.37
2018-06-21T06:53:25.677Z,4.90
2018-06-21T06:55:54.434Z,3.70
2018-06-21T06:58:22.714Z,4.80
2018-06-21T07:00:50.914Z,4.27
2018-06-21T07:03:19.984Z,4.10
2018-06-21T07:05:50.900Z,4.43
2018-06-21T07:10:55.264Z,5.20
2018-06-21T07:13:23.846Z,5.20
2018-06-21T07:15:53.314Z,9.80
2018-06-21T07:18:21.361Z,3.80
2018-06-21T07:20:49.472Z,4.20
2018-06-21T07:23:17.717Z,4.63
2018-06-21T07:25:47.388Z,4.03
2018-06-21T07:28:16.275Z,4.63
2018-06-21T07:30:45.107Z,5.20
2018-06-21T07:33:14.509Z,4.90
2018-06-21T07:35:44.258Z,4.23
2018-06-21T07:38:13.330Z,4.40
2018-06-21T07:40:43.108Z,4.10
2018-06-21T07:43:13.022Z,5.00
2018-06-21T07:45:43.850Z,5.07
2018-06-21T07:48:14.376Z,4.60
2018-06-21T07:50:43.985Z,5.57
2018-06-21T07:53:15.341Z,3.40
2018-06-21T07:55:48.256Z,4.03
2018-06-21T08:00:58.959Z,4.03
2018-06-21T08:03:28.500Z,4.43
2018-06-21T08:05:57.764Z,4.10
2018-06-21T08:08:28.982Z,4.77
2018-06-21T08:10:57.453Z,4.73
2018-06-21T08:13:26.339Z,4.57
2018-06-21T08:15:54.714Z,4.80
2018-06-21T08:18:22.896Z,4.50
2018-06-21T08:20:51.391Z,4.80
2018-06-21T08:23:19.771Z,4.60
2018-06-21T08:25:48.130Z,5.90
2018-06-21T08:28:17.581Z,4.20
2018-06-21T08:30:45.973Z,4.27
2018-06-21T08:33:14.127Z,3.67
2018-06-21T08:35:43.578Z,4.10
2018-06-21T08:38:14.400Z,5.63
2018-06-21T08:40:42.983Z,4.57
2018-06-21T08:43:11.755Z,5.03
2018-06-21T08:45:41.101Z,5.10
2018-06-21T08:48:10.048Z,6.20
2018-06-21T08:50:40.714Z,4.13
2018-06-21T08:53:11.126Z,3.90
2018-06-21T08:55:40.546Z,4.77
2018-06-21T08:58:12.670Z,4.93
2018-06-21T09:00:41.523Z,3.57
2018-06-21T09:03:12.767Z,4.10
2018-06-21T09:05:41.931Z,6.10
2018-06-21T09:08:12.195Z,5.47
2018-06-21T09:10:44.849Z,4.60
2018-06-21T09:13:13.755Z,5.07
2018-06-21T09:15:43.353Z,4.23
2018-06-21T09:18:12.517Z,4.90
2018-06-21T09:20:42.013Z,4.13
2018-06-21T09:23:11.689Z,4.40
2018-06-21T09:25:41.851Z,4.20
2018-06-21T09:28:11.114Z,4.80
2018-06-21T09:30:41.007Z,4.40
2018-06-21T09:33:10.707Z,3.83
2018-06-21T09:35:40.967Z,4.93
2018-06-21T09:38:14.820Z,4.60
2018-06-21T09:40:48.787Z,4.73
2018-06-21T09:43:22.382Z,4.60
2018-06-21T09:45:55.918Z,4.70
2018-06-21T09:48:28.781Z,4.30
2018-06-21T09:50:57.382Z,4.80
2018-06-21T09:53:27.124Z,4.90
2018-06-21T09:55:55.411Z,5.07
2018-06-21T09:58:23.813Z,4.00
2018-06-21T10:00:57.385Z,5.00
2018-06-21T10:03:26.193Z,4.30
2018-06-21T10:05:54.486Z,4.53
2018-06-21T10:08:22.768Z,5.50
2018-06-21T10:10:51.158Z,5.03
2018-06-21T10:13:20.433Z,4.30
2018-06-21T10:15:48.913Z,6.60
2018-06-21T10:18:18.339Z,4.83
2018-06-21T10:20:46.834Z,5.30
2018-06-21T10:23:15.351Z,5.43
2018-06-21T10:25:43.476Z,6.87
2018-06-21T10:28:12.059Z,10.73
2018-06-21T10:30:41.251Z,7.30
2018-06-21T10:33:09.773Z,5.00
2018-06-21T10:35:39.063Z,5.17
2018-06-21T10:38:16.123Z,5.00
2018-06-21T10:40:44.587Z,4.40
2018-06-21T10:43:14.406Z,4.27
2018-06-21T10:45:50.420Z,4.63
2018-06-21T10:48:18.781Z,4.07
2018-06-21T10:50:47.797Z,3.60
2018-06-21T10:53:16.196Z,4.30
2018-06-21T10:55:45.048Z,4.00
2018-06-21T10:58:14.120Z,3.80
2018-06-21T11:00:42.551Z,4.80
2018-06-21T11:03:11.607Z,4.50
2018-06-21T11:05:43.949Z,4.23
2018-06-21T11:11:01.487Z,3.67
2018-06-21T11:13:30.414Z,4.10
2018-06-21T11:15:58.903Z,3.80
2018-06-21T11:18:29.383Z,3.80
2018-06-21T11:20:59.435Z,2.97
2018-06-21T11:23:27.971Z,3.87
2018-06-21T11:25:56.510Z,3.90
2018-06-21T11:28:26.356Z,4.10
2018-06-21T11:30:54.641Z,4.67
2018-06-21T11:33:23.954Z,4.43
2018-06-21T11:35:52.517Z,4.90
2018-06-21T11:38:22.029Z,11.77
2018-06-21T11:40:50.307Z,6.83
2018-06-21T11:43:19.007Z,5.80
2018-06-21T11:45:47.289Z,4.90
2018-06-21T11:48:16.056Z,4.40
2018-06-21T11:50:47.417Z,4.80
2018-06-21T11:53:15.555Z,6.93
2018-06-21T11:55:44.471Z,7.40
2018-06-21T11:58:13.492Z,7.73
2018-06-21T12:00:41.867Z,6.27
2018-06-21T12:03:10.546Z,4.20
2018-06-21T12:05:50.036Z,4.50
2018-06-21T12:08:19.795Z,4.90
2018-06-21T12:10:58.734Z,4.43
2018-06-21T12:13:39.064Z,5.97
2018-06-21T12:16:08.980Z,5.53
2018-06-21T12:18:41.147Z,5.57
2018-06-21T12:21:13.833Z,3.27
2018-06-21T12:23:42.930Z,3.20
2018-06-21T12:26:17.697Z,3.00
2018-06-21T12:28:49.004Z,5.00
2018-06-21T12:31:17.573Z,4.80
2018-06-21T12:33:45.747Z,4.10
2018-06-21T12:36:13.936Z,4.60
2018-06-21T12:38:43.523Z,6.07
2018-06-21T12:41:20.802Z,6.03
2018-06-21T12:43:50.160Z,7.20
2018-06-21T12:46:27.880Z,7.57
2018-06-21T12:48:59.470Z,3.77
2018-06-21T12:51:29.992Z,5.20
2018-06-21T12:53:58.874Z,5.93
2018-06-21T12:56:28.392Z,6.10
2018-06-21T12:58:57.017Z,7.53
2018-06-21T13:01:25.904Z,5.40
2018-06-21T13:03:54.576Z,4.47
2018-06-21T13:06:23.301Z,4.33
2018-06-21T13:08:57.023Z,4.80
2018-06-21T13:11:30.738Z,4.67
2018-06-21T13:14:06.406Z,3.53
2018-06-21T13:16:35.387Z,4.40
2018-06-21T13:19:07.139Z,4.53
2018-06-21T13:21:36.439Z,3.50
2018-06-21T13:24:07.811Z,3.77
2018-06-21T13:26:38.647Z,4.60
2018-06-21T13:29:11.538Z,4.23
2018-06-21T13:31:40.983Z,3.53
2018-06-21T13:34:10.214Z,3.60
2018-06-21T13:36:40.014Z,4.00
2018-06-21T13:39:09.098Z,4.17
2018-06-21T13:41:47.047Z,2.77
2018-06-21T13:44:15.416Z,3.63
2018-06-21T13:46:44.085Z,3.20
2018-06-21T13:49:20.029Z,5.03
2018-06-21T13:51:52.486Z,4.87
2018-06-21T13:54:22.229Z,3.90
2018-06-21T13:56:57.588Z,4.70
2018-06-21T13:59:27.255Z,5.10
2018-06-21T14:01:55.609Z,5.07
2018-06-21T14:04:26.072Z,4.63
2018-06-21T14:06:55.070Z,4.97
2018-06-21T14:09:24.294Z,5.37
2018-06-21T14:11:52.824Z,5.30
2018-06-21T14:14:21.091Z,5.70
2018-06-21T14:16:50.115Z,4.97
2018-06-21T14:19:19.035Z,3.80
2018-06-21T14:21:47.321Z,8.20
2018-06-21T14:24:16.824Z,5.60
2018-06-21T14:26:46.480Z,4.70
2018-06-21T14:29:14.995Z,5.20
2018-06-21T14:34:18.919Z,3.43
2018-06-21T14:36:52.873Z,4.33
2018-06-21T14:39:21.171Z,4.47
2018-06-21T14:41:49.718Z,3.23
2018-06-21T14:47:03.962Z,4.43
2018-06-21T14:49:36.250Z,3.80
2018-06-21T14:52:07.760Z,3.47
2018-06-21T14:57:18.419Z,4.00
2018-06-21T14:59:46.737Z,3.50
2018-06-21T15:02:15.884Z,5.00
2018-06-21T15:04:47.992Z,4.00
2018-06-21T15:07:22.714Z,5.00
2018-06-21T15:09:51.298Z,4.40
2018-06-21T15:12:21.450Z,4.17
2018-06-21T15:14:52.600Z,3.97
2018-06-21T15:17:21.754Z,4.50
2018-06-21T15:19:51.025Z,4.50
2018-06-21T15:22:21.281Z,5.10
2018-06-21T15:24:50.483Z,3.93
2018-06-21T15:27:19.607Z,4.47
2018-06-21T15:29:48.426Z,4.17
2018-06-21T15:32:16.654Z,4.27
2018-06-21T15:34:44.926Z,4.83
2018-06-21T15:37:14.069Z,3.90
2018-06-21T15:45:10.962Z,3.73
2018-06-21T15:47:43.153Z,3.83
2018-06-21T15:50:13.692Z,3.40
2018-06-21T15:52:44.106Z,4.30
2018-06-21T15:55:15.282Z,3.10
2018-06-21T15:57:44.127Z,3.80
2018-06-21T16:00:19.175Z,3.77
2018-06-21T16:02:47.678Z,3.93
2018-06-21T16:05:20.863Z,3.93
2018-06-21T16:07:51.165Z,3.50
2018-06-21T16:10:22.620Z,3.03
2018-06-21T16:12:58.390Z,4.37
2018-06-21T16:15:27.108Z,3.73
2018-06-21T16:17:55.826Z,3.90
2018-06-21T16:20:23.897Z,4.97
2018-06-21T16:22:52.294Z,3.17
2018-06-21T16:25:20.754Z,3.50
2018-06-21T16:27:48.845Z,4.60
2018-06-21T16:30:20.294Z,3.40
2018-06-21T16:35:32.192Z,3.40
2018-06-21T16:38:10.367Z,3.33
2018-06-21T16:40:41.689Z,3.00
2018-06-21T16:45:52.810Z,3.53
2018-06-21T16:48:25.381Z,3.57
2018-06-21T16:50:58.856Z,4.00
2018-06-21T16:53:29.164Z,3.80
2018-06-21T16:55:58.321Z,3.67
2018-06-21T17:01:08.118Z,3.97
2018-06-21T17:03:41.303Z,3.20
2018-06-21T17:06:14.888Z,3.90
2018-06-21T17:08:44.063Z,3.20
2018-06-21T17:11:13.032Z,3.60
2018-06-21T17:13:45.015Z,3.50
2018-06-21T17:18:58.617Z,4.07
2018-06-21T17:21:32.123Z,3.93
2018-06-21T17:24:10.269Z,4.37
2018-06-21T17:26:43.793Z,4.43
2018-06-21T17:29:17.035Z,4.20
2018-06-21T17:31:47.577Z,3.90
2018-06-21T17:34:22.131Z,3.70
2018-06-21T17:37:00.755Z,3.90
2018-06-21T17:39:34.967Z,4.80
2018-06-21T17:44:47.818Z,3.87
2018-06-21T17:47:27.713Z,5.20
2018-06-21T17:49:56.930Z,3.77
2018-06-21T17:52:26.008Z,4.53
2018-06-21T17:54:55.348Z,4.03
2018-06-21T18:00:10.219Z,3.80
2018-06-21T18:02:40.305Z,3.40
2018-06-21T18:05:10.305Z,3.23
2018-06-21T18:07:39.376Z,3.90
2018-06-21T18:10:08.586Z,3.50
2018-06-21T18:12:37.550Z,3.03
2018-06-21T18:15:08.645Z,4.20
2018-06-21T18:17:37.406Z,3.30
2018-06-21T18:20:06.308Z,3.17
2018-06-21T18:22:34.991Z,2.97
2018-06-21T18:27:41.942Z,3.60
2018-06-21T18:30:10.275Z,4.10
2018-06-21T18:32:38.925Z,3.20
2018-06-21T18:35:07.890Z,3.60
2018-06-21T18:37:36.882Z,4.53
2018-06-21T18:40:05.681Z,4.20
2018-06-21T18:42:34.570Z,5.57
2018-06-21T18:45:03.434Z,4.53
2018-06-21T18:47:31.550Z,4.43
2018-06-21T18:50:00.933Z,4.43
2018-06-21T18:52:30.703Z,4.23
2018-06-21T18:55:03.909Z,4.87
2018-06-21T18:57:32.086Z,4.50
2018-06-21T19:00:00.658Z,4.60
2018-06-21T19:02:29.405Z,4.10
2018-06-21T19:05:00.141Z,3.33
2018-06-21T19:07:31.108Z,3.83
2018-06-21T19:10:07.091Z,3.60
2018-06-21T19:12:37.140Z,3.90
2018-06-21T19:15:09.543Z,4.00
2018-06-21T19:17:42.339Z,4.13
2018-06-21T19:20:11.619Z,3.60
2018-06-21T19:22:42.798Z,3.70
2018-06-21T19:25:11.278Z,3.47
2018-06-21T19:27:39.461Z,3.33
2018-06-21T19:30:07.499Z,4.20
2018-06-21T19:32:35.606Z,3.43
2018-06-21T19:35:04.406Z,3.30
2018-06-21T19:37:35.954Z,3.10
2018-06-21T19:40:04.290Z,2.87
2018-06-21T19:42:36.667Z,2.70
2018-06-21T19:45:04.948Z,3.03
2018-06-21T19:50:05.720Z,2.97
2018-06-21T19:52:38.244Z,3.27
2018-06-21T19:55:06.807Z,3.77
2018-06-21T19:57:35.013Z,3.20
2018-06-21T20:00:05.551Z,4.17
2018-06-21T20:02:38.992Z,3.83
2018-06-21T20:05:08.559Z,3.87
2018-06-21T20:07:37.671Z,4.60
2018-06-21T20:10:07.593Z,3.47
2018-06-21T20:12:39.078Z,4.10
2018-06-21T20:15:07.707Z,3.97
2018-06-21T20:17:36.234Z,3.60
2018-06-21T20:20:38.555Z,3.47
2018-06-21T20:23:08.358Z,3.60
2018-06-21T20:25:37.234Z,4.57
2018-06-21T20:28:05.745Z,4.67
2018-06-21T20:30:36.923Z,3.93
2018-06-21T20:33:05.343Z,4.13
2018-06-21T20:35:33.458Z,4.17
2018-06-21T20:38:02.189Z,5.07
2018-06-21T20:40:31.179Z,5.00
2018-06-21T20:42:59.356Z,6.00
2018-06-21T20:45:27.478Z,4.93
2018-06-21T20:47:55.570Z,5.47
2018-06-21T20:50:23.719Z,6.73
2018-06-21T20:52:52.067Z,6.80
2018-06-21T20:55:20.021Z,6.53
2018-06-21T20:57:47.981Z,6.67
2018-06-21T21:00:17.081Z,5.83
2018-06-21T21:02:45.124Z,5.63
2018-06-21T21:05:15.626Z,6.70
2018-06-21T21:07:45.947Z,6.60
2018-06-21T21:10:15.770Z,5.40
2018-06-21T21:12:43.791Z,5.43
2018-06-21T21:15:12.741Z,6.07
2018-06-21T21:17:41.288Z,6.70
2018-06-21T21:20:10.192Z,5.60
2018-06-21T21:22:39.449Z,5.37
2018-06-21T21:25:07.819Z,5.43
2018-06-21T21:27:36.265Z,5.93
2018-06-21T21:30:06.428Z,5.70
2018-06-21T21:32:35.258Z,5.40
2018-06-21T21:35:03.488Z,4.30
2018-06-21T21:37:32.219Z,3.40
2018-06-21T21:40:04.689Z,3.43
2018-06-21T21:42:34.370Z,2.60
2018-06-21T21:45:02.536Z,2.50
2018-06-21T21:47:31.678Z,2.93
2018-06-21T21:49:59.974Z,2.27
2018-06-21T21:52:28.197Z,2.33
2018-06-21T21:54:56.617Z,2.10
2018-06-21T21:57:24.688Z,2.33
2018-06-21T21:59:52.645Z,2.50
2018-06-21T22:02:20.620Z,1.80
2018-06-21T22:04:50.641Z,2.20
2018-06-21T22:07:21.696Z,2.53
2018-06-21T22:09:50.926Z,1.83
2018-06-21T22:12:21.130Z,2.10
2018-06-21T22:14:55.363Z,2.33
2018-06-21T22:17:26.613Z,1.80
2018-06-21T22:19:54.980Z,1.90
2018-06-21T22:22:24.922Z,2.20
2018-06-21T22:24:54.638Z,1.90
2018-06-21T22:27:23.910Z,1.80
2018-06-21T22:29:53.219Z,2.03
2018-06-21T22:32:28.294Z,2.53
2018-06-21T22:34:57.360Z,2.10
2018-06-21T22:37:25.531Z,2.37
2018-06-21T22:39:54.499Z,1.40
2018-06-21T22:42:24.312Z,2.40
2018-06-21T22:44:52.668Z,1.93
2018-06-21T22:47:24.279Z,1.60
2018-06-21T22:49:52.188Z,1.40
2018-06-21T22:52:20.117Z,2.47
2018-06-21T22:54:48.046Z,1.83
2018-06-21T22:57:16.169Z,1.90
2018-06-21T22:59:44.094Z,1.40
2018-06-21T23:02:12.128Z,1.30
2018-06-21T23:04:40.556Z,2.03
2018-06-21T23:07:08.735Z,1.50
2018-06-21T23:09:37.005Z,1.43
2018-06-21T23:14:39.751Z,0.90
2018-06-21T23:17:09.875Z,1.70
2018-06-21T23:19:38.575Z,4.23
2018-06-21T23:22:06.868Z,1.77
2018-06-21T23:24:35.738Z,2.10
2018-06-21T23:27:03.941Z,1.00
2018-06-21T23:29:31.884Z,1.90
2018-06-21T23:32:00.074Z,1.53
2018-06-21T23:34:28.251Z,1.73
2018-06-21T23:36:56.626Z,1.57
2018-06-21T23:39:24.880Z,1.47
2018-06-21T23:41:52.964Z,1.20
2018-06-21T23:44:21.043Z,1.07
2018-06-21T23:46:49.023Z,1.93
2018-06-21T23:49:16.918Z,1.07
2018-06-21T23:51:44.873Z,1.63
2018-06-21T23:54:13.822Z,2.17
2018-06-21T23:56:44.693Z,1.43
2018-06-21T23:59:12.642Z,1.40
